sensor_id;sensor_type;location;lat;lon;timestamp;P1;durP1;ratioP1;P2;durP2;ratioP2
67037;SDS011;53940;53.204;6.590;2022-12-07T00:00:21;0.90;;;0.30;;
67037;SDS011;53940;53.204;6.590;2022-12-07T00:03:22;0.15;;;0.10;;
67037;SDS011;53940;53.204;6.590;2022-12-07T00:06:22;0.80;;;0.20;;
67037;SDS011;53940;53.204;6.590;2022-12-07T00:09:23;0.22;;;0.13;;
67037;SDS011;53940;53.204;6.590;2022-12-07T00:12:23;0.30;;;0.10;;
67037;SDS011;53940;53.204;6.590;2022-12-07T00:15:24;0.60;;;0.30;;
67037;SDS011;53940;53.204;6.590;2022-12-07T00:18:24;0.38;;;0.20;;
67037;SDS011;53940;53.204;6.590;2022-12-07T00:21:25;0.30;;;0.17;;
67037;SDS011;53940;53.204;6.590;2022-12-07T00:24:30;0.63;;;0.20;;
67037;SDS011;53940;53.204;6.590;2022-12-07T00:27:30;0.60;;;0.17;;
67037;SDS011;53940;53.204;6.590;2022-12-07T00:30:31;0.93;;;0.20;;
67037;SDS011;53940;53.204;6.590;2022-12-07T00:33:32;1.05;;;0.30;;
67037;SDS011;53940;53.204;6.590;2022-12-07T00:36:33;0.60;;;0.20;;
67037;SDS011;53940;53.204;6.590;2022-12-07T00:39:33;0.82;;;0.20;;
67037;SDS011;53940;53.204;6.590;2022-12-07T00:42:33;0.32;;;0.20;;
67037;SDS011;53940;53.204;6.590;2022-12-07T00:45:34;0.50;;;0.20;;
67037;SDS011;53940;53.204;6.590;2022-12-07T00:48:35;1.08;;;0.20;;
67037;SDS011;53940;53.204;6.590;2022-12-07T00:51:35;0.60;;;0.25;;
67037;SDS011;53940;53.204;6.590;2022-12-07T00:54:35;0.52;;;0.20;;
67037;SDS011;53940;53.204;6.590;2022-12-07T00:57:36;0.55;;;0.20;;
67037;SDS011;53940;53.204;6.590;2022-12-07T01:00:37;0.40;;;0.20;;
67037;SDS011;53940;53.204;6.590;2022-12-07T01:03:38;0.75;;;0.20;;
67037;SDS011;53940;53.204;6.590;2022-12-07T01:06:38;0.43;;;0.20;;
67037;SDS011;53940;53.204;6.590;2022-12-07T01:09:39;0.20;;;0.20;;
67037;SDS011;53940;53.204;6.590;2022-12-07T01:12:39;0.98;;;0.30;;
67037;SDS011;53940;53.204;6.590;2022-12-07T01:15:41;0.60;;;0.20;;
67037;SDS011;53940;53.204;6.590;2022-12-07T01:18:45;0.40;;;0.20;;
67037;SDS011;53940;53.204;6.590;2022-12-07T01:21:47;0.65;;;0.10;;
67037;SDS011;53940;53.204;6.590;2022-12-07T01:24:48;1.02;;;0.30;;
67037;SDS011;53940;53.204;6.590;2022-12-07T01:27:48;0.63;;;0.30;;
67037;SDS011;53940;53.204;6.590;2022-12-07T01:30:58;0.50;;;0.13;;
67037;SDS011;53940;53.204;6.590;2022-12-07T01:34:00;0.38;;;0.20;;
67037;SDS011;53940;53.204;6.590;2022-12-07T01:37:01;2.38;;;0.30;;
67037;SDS011;53940;53.204;6.590;2022-12-07T01:40:02;0.30;;;0.20;;
67037;SDS011;53940;53.204;6.590;2022-12-07T01:43:18;1.27;;;0.30;;
67037;SDS011;53940;53.204;6.590;2022-12-07T01:46:19;0.10;;;0.10;;
67037;SDS011;53940;53.204;6.590;2022-12-07T01:52:41;0.80;;;0.20;;
67037;SDS011;53940;53.204;6.590;2022-12-07T01:55:45;0.38;;;0.20;;
67037;SDS011;53940;53.204;6.590;2022-12-07T01:58:49;0.38;;;0.10;;
67037;SDS011;53940;53.204;6.590;2022-12-07T02:01:52;0.85;;;0.30;;
67037;SDS011;53940;53.204;6.590;2022-12-07T02:04:54;0.70;;;0.20;;
67037;SDS011;53940;53.204;6.590;2022-12-07T02:07:56;0.95;;;0.10;;
67037;SDS011;53940;53.204;6.590;2022-12-07T02:10:57;0.60;;;0.40;;
67037;SDS011;53940;53.204;6.590;2022-12-07T02:13:58;1.60;;;0.40;;
67037;SDS011;53940;53.204;6.590;2022-12-07T02:20:13;0.60;;;0.20;;
67037;SDS011;53940;53.204;6.590;2022-12-07T02:33:16;0.90;;;0.20;;
67037;SDS011;53940;53.204;6.590;2022-12-07T02:36:27;0.68;;;0.20;;
67037;SDS011;53940;53.204;6.590;2022-12-07T02:39:37;0.63;;;0.30;;
67037;SDS011;53940;53.204;6.590;2022-12-07T02:42:45;0.63;;;0.28;;
67037;SDS011;53940;53.204;6.590;2022-12-07T02:45:51;0.40;;;0.20;;
67037;SDS011;53940;53.204;6.590;2022-12-07T02:48:53;0.63;;;0.20;;
67037;SDS011;53940;53.204;6.590;2022-12-07T02:52:34;0.77;;;0.20;;
67037;SDS011;53940;53.204;6.590;2022-12-07T02:55:37;0.20;;;0.20;;
67037;SDS011;53940;53.204;6.590;2022-12-07T03:02:10;0.70;;;0.20;;
67037;SDS011;53940;53.204;6.590;2022-12-07T03:12:41;0.90;;;0.30;;
67037;SDS011;53940;53.204;6.590;2022-12-07T03:19:17;0.60;;;0.20;;
67037;SDS011;53940;53.204;6.590;2022-12-07T03:22:20;0.95;;;0.20;;
67037;SDS011;53940;53.204;6.590;2022-12-07T03:25:22;0.65;;;0.20;;
67037;SDS011;53940;53.204;6.590;2022-12-07T03:28:24;0.40;;;0.20;;
67037;SDS011;53940;53.204;6.590;2022-12-07T03:31:36;0.95;;;0.30;;
67037;SDS011;53940;53.204;6.590;2022-12-07T03:34:47;0.73;;;0.20;;
67037;SDS011;53940;53.204;6.590;2022-12-07T03:41:27;0.77;;;0.40;;
67037;SDS011;53940;53.204;6.590;2022-12-07T03:44:31;0.65;;;0.25;;
67037;SDS011;53940;53.204;6.590;2022-12-07T03:47:45;0.95;;;0.20;;
67037;SDS011;53940;53.204;6.590;2022-12-07T03:51:17;0.63;;;0.28;;
67037;SDS011;53940;53.204;6.590;2022-12-07T03:54:19;0.45;;;0.20;;
67037;SDS011;53940;53.204;6.590;2022-12-07T03:57:25;0.45;;;0.20;;
67037;SDS011;53940;53.204;6.590;2022-12-07T04:00:27;1.02;;;0.20;;
67037;SDS011;53940;53.204;6.590;2022-12-07T04:03:28;1.35;;;0.30;;
67037;SDS011;53940;53.204;6.590;2022-12-07T04:06:29;1.00;;;0.20;;
67037;SDS011;53940;53.204;6.590;2022-12-07T04:09:29;0.20;;;0.10;;
67037;SDS011;53940;53.204;6.590;2022-12-07T04:12:29;0.93;;;0.30;;
67037;SDS011;53940;53.204;6.590;2022-12-07T04:15:30;1.40;;;0.20;;
67037;SDS011;53940;53.204;6.590;2022-12-07T04:18:30;1.50;;;0.30;;
67037;SDS011;53940;53.204;6.590;2022-12-07T04:21:30;0.32;;;0.20;;
67037;SDS011;53940;53.204;6.590;2022-12-07T04:24:31;0.57;;;0.17;;
67037;SDS011;53940;53.204;6.590;2022-12-07T04:27:32;0.68;;;0.20;;
67037;SDS011;53940;53.204;6.590;2022-12-07T04:30:33;0.55;;;0.30;;
67037;SDS011;53940;53.204;6.590;2022-12-07T04:33:33;0.28;;;0.20;;
67037;SDS011;53940;53.204;6.590;2022-12-07T04:36:35;0.32;;;0.13;;
67037;SDS011;53940;53.204;6.590;2022-12-07T04:39:36;0.65;;;0.20;;
67037;SDS011;53940;53.204;6.590;2022-12-07T04:42:36;0.90;;;0.30;;
67037;SDS011;53940;53.204;6.590;2022-12-07T04:45:37;0.38;;;0.20;;
67037;SDS011;53940;53.204;6.590;2022-12-07T04:48:37;0.70;;;0.20;;
67037;SDS011;53940;53.204;6.590;2022-12-07T04:51:38;0.90;;;0.20;;
67037;SDS011;53940;53.204;6.590;2022-12-07T04:54:38;0.77;;;0.30;;
67037;SDS011;53940;53.204;6.590;2022-12-07T04:57:39;0.32;;;0.10;;
67037;SDS011;53940;53.204;6.590;2022-12-07T05:00:39;0.52;;;0.20;;
67037;SDS011;53940;53.204;6.590;2022-12-07T05:03:40;0.57;;;0.20;;
67037;SDS011;53940;53.204;6.590;2022-12-07T05:06:40;0.57;;;0.17;;
67037;SDS011;53940;53.204;6.590;2022-12-07T05:09:40;1.45;;;0.25;;
67037;SDS011;53940;53.204;6.590;2022-12-07T05:12:41;0.57;;;0.20;;
67037;SDS011;53940;53.204;6.590;2022-12-07T05:15:41;1.13;;;0.30;;
67037;SDS011;53940;53.204;6.590;2022-12-07T05:18:43;0.65;;;0.20;;
67037;SDS011;53940;53.204;6.590;2022-12-07T05:21:44;0.73;;;0.20;;
67037;SDS011;53940;53.204;6.590;2022-12-07T05:24:44;0.93;;;0.20;;
67037;SDS011;53940;53.204;6.590;2022-12-07T05:27:44;0.22;;;0.20;;
67037;SDS011;53940;53.204;6.590;2022-12-07T05:30:45;0.93;;;0.30;;
67037;SDS011;53940;53.204;6.590;2022-12-07T05:33:45;0.47;;;0.20;;
67037;SDS011;53940;53.204;6.590;2022-12-07T05:36:46;1.52;;;0.25;;
67037;SDS011;53940;53.204;6.590;2022-12-07T05:39:46;1.50;;;0.20;;
67037;SDS011;53940;53.204;6.590;2022-12-07T05:42:47;0.98;;;0.20;;
67037;SDS011;53940;53.204;6.590;2022-12-07T05:45:47;0.73;;;0.22;;
67037;SDS011;53940;53.204;6.590;2022-12-07T05:48:47;0.73;;;0.28;;
67037;SDS011;53940;53.204;6.590;2022-12-07T05:51:48;0.55;;;0.30;;
67037;SDS011;53940;53.204;6.590;2022-12-07T05:54:48;0.40;;;0.10;;
67037;SDS011;53940;53.204;6.590;2022-12-07T05:57:48;1.65;;;0.20;;
67037;SDS011;53940;53.204;6.590;2022-12-07T06:01:07;0.20;;;0.17;;
67037;SDS011;53940;53.204;6.590;2022-12-07T06:04:08;0.17;;;0.00;;
67037;SDS011;53940;53.204;6.590;2022-12-07T06:07:09;0.75;;;0.20;;
67037;SDS011;53940;53.204;6.590;2022-12-07T06:10:10;0.75;;;0.20;;
67037;SDS011;53940;53.204;6.590;2022-12-07T06:13:11;0.55;;;0.20;;
67037;SDS011;53940;53.204;6.590;2022-12-07T06:16:11;0.52;;;0.20;;
67037;SDS011;53940;53.204;6.590;2022-12-07T06:19:11;0.65;;;0.20;;
67037;SDS011;53940;53.204;6.590;2022-12-07T06:22:12;0.45;;;0.30;;
67037;SDS011;53940;53.204;6.590;2022-12-07T06:25:13;0.40;;;0.10;;
67037;SDS011;53940;53.204;6.590;2022-12-07T06:28:13;0.70;;;0.20;;
67037;SDS011;53940;53.204;6.590;2022-12-07T06:31:13;0.47;;;0.28;;
67037;SDS011;53940;53.204;6.590;2022-12-07T06:34:15;0.95;;;0.20;;
67037;SDS011;53940;53.204;6.590;2022-12-07T06:37:17;0.40;;;0.20;;
67037;SDS011;53940;53.204;6.590;2022-12-07T06:40:18;0.63;;;0.20;;
67037;SDS011;53940;53.204;6.590;2022-12-07T06:43:18;1.42;;;0.20;;
67037;SDS011;53940;53.204;6.590;2022-12-07T06:46:18;0.38;;;0.20;;
67037;SDS011;53940;53.204;6.590;2022-12-07T06:49:19;0.40;;;0.10;;
67037;SDS011;53940;53.204;6.590;2022-12-07T06:52:19;0.45;;;0.17;;
67037;SDS011;53940;53.204;6.590;2022-12-07T06:55:19;0.30;;;0.10;;
67037;SDS011;53940;53.204;6.590;2022-12-07T06:58:20;0.13;;;0.10;;
67037;SDS011;53940;53.204;6.590;2022-12-07T07:01:20;0.35;;;0.20;;
67037;SDS011;53940;53.204;6.590;2022-12-07T07:04:21;0.45;;;0.20;;
67037;SDS011;53940;53.204;6.590;2022-12-07T07:07:21;0.65;;;0.20;;
67037;SDS011;53940;53.204;6.590;2022-12-07T07:10:21;0.60;;;0.20;;
67037;SDS011;53940;53.204;6.590;2022-12-07T07:13:22;0.77;;;0.20;;
67037;SDS011;53940;53.204;6.590;2022-12-07T07:16:23;0.57;;;0.20;;
67037;SDS011;53940;53.204;6.590;2022-12-07T07:19:24;0.70;;;0.20;;
67037;SDS011;53940;53.204;6.590;2022-12-07T07:22:24;0.47;;;0.10;;
67037;SDS011;53940;53.204;6.590;2022-12-07T07:25:24;0.30;;;0.10;;
67037;SDS011;53940;53.204;6.590;2022-12-07T07:28:25;0.47;;;0.20;;
67037;SDS011;53940;53.204;6.590;2022-12-07T07:31:25;0.20;;;0.15;;
67037;SDS011;53940;53.204;6.590;2022-12-07T07:34:25;0.60;;;0.30;;
67037;SDS011;53940;53.204;6.590;2022-12-07T07:37:26;0.35;;;0.10;;
67037;SDS011;53940;53.204;6.590;2022-12-07T07:40:26;0.45;;;0.20;;
67037;SDS011;53940;53.204;6.590;2022-12-07T07:43:29;0.15;;;0.10;;
67037;SDS011;53940;53.204;6.590;2022-12-07T07:46:29;0.13;;;0.10;;
67037;SDS011;53940;53.204;6.590;2022-12-07T07:49:30;0.20;;;0.10;;
67037;SDS011;53940;53.204;6.590;2022-12-07T07:52:30;0.82;;;0.20;;
67037;SDS011;53940;53.204;6.590;2022-12-07T07:55:31;0.90;;;0.30;;
67037;SDS011;53940;53.204;6.590;2022-12-07T07:58:31;0.45;;;0.10;;
67037;SDS011;53940;53.204;6.590;2022-12-07T08:01:32;0.40;;;0.20;;
67037;SDS011;53940;53.204;6.590;2022-12-07T08:04:32;1.30;;;0.30;;
67037;SDS011;53940;53.204;6.590;2022-12-07T08:07:32;0.50;;;0.20;;
67037;SDS011;53940;53.204;6.590;2022-12-07T08:10:33;0.52;;;0.22;;
67037;SDS011;53940;53.204;6.590;2022-12-07T08:13:35;0.43;;;0.20;;
67037;SDS011;53940;53.204;6.590;2022-12-07T08:16:36;0.65;;;0.17;;
67037;SDS011;53940;53.204;6.590;2022-12-07T08:19:37;1.50;;;0.28;;
67037;SDS011;53940;53.204;6.590;2022-12-07T08:22:38;0.32;;;0.20;;
67037;SDS011;53940;53.204;6.590;2022-12-07T08:25:38;0.50;;;0.20;;
67037;SDS011;53940;53.204;6.590;2022-12-07T08:28:39;0.90;;;0.20;;
67037;SDS011;53940;53.204;6.590;2022-12-07T08:31:40;0.85;;;0.20;;
67037;SDS011;53940;53.204;6.590;2022-12-07T08:34:40;0.28;;;0.10;;
67037;SDS011;53940;53.204;6.590;2022-12-07T08:37:41;0.80;;;0.25;;
67037;SDS011;53940;53.204;6.590;2022-12-07T08:40:41;0.75;;;0.30;;
67037;SDS011;53940;53.204;6.590;2022-12-07T08:43:42;0.38;;;0.10;;
67037;SDS011;53940;53.204;6.590;2022-12-07T08:47:01;0.85;;;0.20;;
67037;SDS011;53940;53.204;6.590;2022-12-07T08:50:05;0.93;;;0.20;;
67037;SDS011;53940;53.204;6.590;2022-12-07T08:53:07;0.10;;;0.10;;
67037;SDS011;53940;53.204;6.590;2022-12-07T08:56:08;2.47;;;0.25;;
67037;SDS011;53940;53.204;6.590;2022-12-07T08:59:09;1.05;;;0.10;;
67037;SDS011;53940;53.204;6.590;2022-12-07T09:02:10;1.88;;;0.20;;
67037;SDS011;53940;53.204;6.590;2022-12-07T09:05:11;1.00;;;0.20;;
67037;SDS011;53940;53.204;6.590;2022-12-07T09:08:12;0.80;;;0.10;;
67037;SDS011;53940;53.204;6.590;2022-12-07T09:11:12;0.50;;;0.10;;
67037;SDS011;53940;53.204;6.590;2022-12-07T09:14:13;0.50;;;0.20;;
67037;SDS011;53940;53.204;6.590;2022-12-07T09:17:13;0.32;;;0.20;;
67037;SDS011;53940;53.204;6.590;2022-12-07T09:20:14;0.70;;;0.20;;
67037;SDS011;53940;53.204;6.590;2022-12-07T09:23:14;0.20;;;0.20;;
67037;SDS011;53940;53.204;6.590;2022-12-07T09:26:15;1.05;;;0.30;;
67037;SDS011;53940;53.204;6.590;2022-12-07T09:29:15;0.47;;;0.22;;
67037;SDS011;53940;53.204;6.590;2022-12-07T09:32:16;0.52;;;0.22;;
67037;SDS011;53940;53.204;6.590;2022-12-07T09:35:16;0.80;;;0.22;;
67037;SDS011;53940;53.204;6.590;2022-12-07T09:38:16;0.63;;;0.30;;
67037;SDS011;53940;53.204;6.590;2022-12-07T09:41:19;0.40;;;0.20;;
67037;SDS011;53940;53.204;6.590;2022-12-07T09:44:23;1.13;;;0.30;;
67037;SDS011;53940;53.204;6.590;2022-12-07T09:47:24;0.68;;;0.30;;
67037;SDS011;53940;53.204;6.590;2022-12-07T09:50:27;1.17;;;0.22;;
67037;SDS011;53940;53.204;6.590;2022-12-07T09:53:34;0.60;;;0.20;;
67037;SDS011;53940;53.204;6.590;2022-12-07T09:56:37;0.35;;;0.13;;
67037;SDS011;53940;53.204;6.590;2022-12-07T09:59:38;0.20;;;0.13;;
67037;SDS011;53940;53.204;6.590;2022-12-07T10:02:56;0.32;;;0.20;;
67037;SDS011;53940;53.204;6.590;2022-12-07T10:05:58;1.23;;;0.30;;
67037;SDS011;53940;53.204;6.590;2022-12-07T10:08:59;1.77;;;0.20;;
67037;SDS011;53940;53.204;6.590;2022-12-07T10:12:06;0.68;;;0.20;;
67037;SDS011;53940;53.204;6.590;2022-12-07T10:15:09;0.25;;;0.13;;
67037;SDS011;53940;53.204;6.590;2022-12-07T10:18:20;0.52;;;0.20;;
67037;SDS011;53940;53.204;6.590;2022-12-07T10:21:26;0.20;;;0.10;;
67037;SDS011;53940;53.204;6.590;2022-12-07T10:24:27;1.23;;;0.38;;
67037;SDS011;53940;53.204;6.590;2022-12-07T10:27:31;0.57;;;0.10;;
67037;SDS011;53940;53.204;6.590;2022-12-07T10:30:32;0.77;;;0.30;;
67037;SDS011;53940;53.204;6.590;2022-12-07T10:33:58;0.88;;;0.25;;
67037;SDS011;53940;53.204;6.590;2022-12-07T10:40:23;1.00;;;0.20;;
67037;SDS011;53940;53.204;6.590;2022-12-07T10:43:25;0.60;;;0.20;;
67037;SDS011;53940;53.204;6.590;2022-12-07T10:53:28;0.55;;;0.20;;
67037;SDS011;53940;53.204;6.590;2022-12-07T10:59:48;0.40;;;0.10;;
67037;SDS011;53940;53.204;6.590;2022-12-07T11:09:49;1.55;;;0.40;;
67037;SDS011;53940;53.204;6.590;2022-12-07T11:23:12;1.27;;;0.20;;
67037;SDS011;53940;53.204;6.590;2022-12-07T11:29:49;1.08;;;0.30;;
67037;SDS011;53940;53.204;6.590;2022-12-07T11:33:02;0.47;;;0.10;;
67037;SDS011;53940;53.204;6.590;2022-12-07T11:39:45;0.98;;;0.30;;
67037;SDS011;53940;53.204;6.590;2022-12-07T11:42:58;0.98;;;0.20;;
67037;SDS011;53940;53.204;6.590;2022-12-07T11:49:11;1.00;;;0.22;;
67037;SDS011;53940;53.204;6.590;2022-12-07T11:55:30;0.77;;;0.32;;
67037;SDS011;53940;53.204;6.590;2022-12-07T12:08:23;1.08;;;0.13;;
67037;SDS011;53940;53.204;6.590;2022-12-07T12:15:02;1.90;;;0.52;;
67037;SDS011;53940;53.204;6.590;2022-12-07T12:18:14;2.45;;;0.70;;
67037;SDS011;53940;53.204;6.590;2022-12-07T12:21:26;2.97;;;0.98;;
67037;SDS011;53940;53.204;6.590;2022-12-07T12:24:29;3.35;;;1.15;;
67037;SDS011;53940;53.204;6.590;2022-12-07T12:27:37;2.40;;;1.02;;
67037;SDS011;53940;53.204;6.590;2022-12-07T12:30:39;2.35;;;1.15;;
67037;SDS011;53940;53.204;6.590;2022-12-07T12:33:50;2.92;;;1.15;;
67037;SDS011;53940;53.204;6.590;2022-12-07T12:36:52;3.28;;;1.20;;
67037;SDS011;53940;53.204;6.590;2022-12-07T12:46:51;2.17;;;1.15;;
67037;SDS011;53940;53.204;6.590;2022-12-07T12:50:10;3.08;;;1.33;;
67037;SDS011;53940;53.204;6.590;2022-12-07T12:53:19;2.58;;;1.00;;
67037;SDS011;53940;53.204;6.590;2022-12-07T12:56:28;2.53;;;1.23;;
67037;SDS011;53940;53.204;6.590;2022-12-07T12:59:42;2.97;;;0.90;;
67037;SDS011;53940;53.204;6.590;2022-12-07T13:02:55;1.80;;;0.90;;
67037;SDS011;53940;53.204;6.590;2022-12-07T13:12:22;2.05;;;1.02;;
67037;SDS011;53940;53.204;6.590;2022-12-07T13:21:42;2.83;;;0.90;;
67037;SDS011;53940;53.204;6.590;2022-12-07T13:24:43;2.55;;;0.80;;
67037;SDS011;53940;53.204;6.590;2022-12-07T13:27:43;1.75;;;0.70;;
67037;SDS011;53940;53.204;6.590;2022-12-07T13:31:00;2.10;;;0.70;;
67037;SDS011;53940;53.204;6.590;2022-12-07T13:34:26;1.40;;;0.57;;
67037;SDS011;53940;53.204;6.590;2022-12-07T13:37:35;0.95;;;0.50;;
67037;SDS011;53940;53.204;6.590;2022-12-07T13:40:35;1.35;;;0.60;;
67037;SDS011;53940;53.204;6.590;2022-12-07T13:50:41;1.60;;;0.95;;
67037;SDS011;53940;53.204;6.590;2022-12-07T13:54:01;2.25;;;0.75;;
67037;SDS011;53940;53.204;6.590;2022-12-07T14:00:15;1.43;;;0.40;;
67037;SDS011;53940;53.204;6.590;2022-12-07T14:03:32;2.13;;;0.60;;
67037;SDS011;53940;53.204;6.590;2022-12-07T14:06:34;0.80;;;0.40;;
67037;SDS011;53940;53.204;6.590;2022-12-07T14:09:34;1.38;;;0.60;;
67037;SDS011;53940;53.204;6.590;2022-12-07T14:12:36;1.05;;;0.50;;
67037;SDS011;53940;53.204;6.590;2022-12-07T14:15:37;1.50;;;0.70;;
67037;SDS011;53940;53.204;6.590;2022-12-07T14:18:39;1.13;;;0.47;;
67037;SDS011;53940;53.204;6.590;2022-12-07T14:21:40;1.45;;;0.40;;
67037;SDS011;53940;53.204;6.590;2022-12-07T14:24:43;1.10;;;0.50;;
67037;SDS011;53940;53.204;6.590;2022-12-07T14:27:57;1.02;;;0.40;;
67037;SDS011;53940;53.204;6.590;2022-12-07T14:31:00;1.17;;;0.40;;
67037;SDS011;53940;53.204;6.590;2022-12-07T14:34:01;2.30;;;0.50;;
67037;SDS011;53940;53.204;6.590;2022-12-07T14:37:01;2.05;;;0.50;;
67037;SDS011;53940;53.204;6.590;2022-12-07T14:40:01;2.22;;;0.70;;
67037;SDS011;53940;53.204;6.590;2022-12-07T14:43:04;1.25;;;0.40;;
67037;SDS011;53940;53.204;6.590;2022-12-07T14:46:06;1.05;;;0.40;;
67037;SDS011;53940;53.204;6.590;2022-12-07T14:49:07;0.55;;;0.30;;
67037;SDS011;53940;53.204;6.590;2022-12-07T14:52:11;0.85;;;0.40;;
67037;SDS011;53940;53.204;6.590;2022-12-07T14:58:24;1.25;;;0.45;;
67037;SDS011;53940;53.204;6.590;2022-12-07T15:01:24;0.88;;;0.30;;
67037;SDS011;53940;53.204;6.590;2022-12-07T15:04:25;0.90;;;0.30;;
67037;SDS011;53940;53.204;6.590;2022-12-07T15:07:25;1.05;;;0.45;;
67037;SDS011;53940;53.204;6.590;2022-12-07T15:10:27;0.70;;;0.30;;
67037;SDS011;53940;53.204;6.590;2022-12-07T15:13:31;1.15;;;0.38;;
67037;SDS011;53940;53.204;6.590;2022-12-07T15:16:50;1.27;;;0.60;;
67037;SDS011;53940;53.204;6.590;2022-12-07T15:19:51;0.95;;;0.40;;
67037;SDS011;53940;53.204;6.590;2022-12-07T15:22:51;0.65;;;0.30;;
67037;SDS011;53940;53.204;6.590;2022-12-07T15:25:51;1.02;;;0.30;;
67037;SDS011;53940;53.204;6.590;2022-12-07T15:28:52;1.33;;;0.32;;
67037;SDS011;53940;53.204;6.590;2022-12-07T15:31:54;1.40;;;0.40;;
67037;SDS011;53940;53.204;6.590;2022-12-07T15:34:54;0.63;;;0.32;;
67037;SDS011;53940;53.204;6.590;2022-12-07T15:37:55;0.82;;;0.40;;
67037;SDS011;53940;53.204;6.590;2022-12-07T15:40:55;0.35;;;0.20;;
67037;SDS011;53940;53.204;6.590;2022-12-07T15:43:56;0.75;;;0.30;;
67037;SDS011;53940;53.204;6.590;2022-12-07T15:47:14;0.80;;;0.30;;
67037;SDS011;53940;53.204;6.590;2022-12-07T15:50:18;0.75;;;0.30;;
67037;SDS011;53940;53.204;6.590;2022-12-07T15:53:18;0.60;;;0.30;;
67037;SDS011;53940;53.204;6.590;2022-12-07T15:56:18;0.93;;;0.40;;
67037;SDS011;53940;53.204;6.590;2022-12-07T15:59:19;0.50;;;0.22;;
67037;SDS011;53940;53.204;6.590;2022-12-07T16:02:19;0.73;;;0.30;;
67037;SDS011;53940;53.204;6.590;2022-12-07T16:05:23;0.77;;;0.30;;
67037;SDS011;53940;53.204;6.590;2022-12-07T16:08:23;0.70;;;0.30;;
67037;SDS011;53940;53.204;6.590;2022-12-07T16:11:23;0.93;;;0.40;;
67037;SDS011;53940;53.204;6.590;2022-12-07T16:14:24;1.00;;;0.32;;
67037;SDS011;53940;53.204;6.590;2022-12-07T16:17:24;0.20;;;0.20;;
67037;SDS011;53940;53.204;6.590;2022-12-07T16:20:24;0.43;;;0.28;;
67037;SDS011;53940;53.204;6.590;2022-12-07T16:23:25;0.90;;;0.35;;
67037;SDS011;53940;53.204;6.590;2022-12-07T16:26:26;1.10;;;0.28;;
67037;SDS011;53940;53.204;6.590;2022-12-07T16:29:26;1.30;;;0.40;;
67037;SDS011;53940;53.204;6.590;2022-12-07T16:32:27;1.02;;;0.40;;
67037;SDS011;53940;53.204;6.590;2022-12-07T16:35:27;0.50;;;0.20;;
67037;SDS011;53940;53.204;6.590;2022-12-07T16:38:28;0.80;;;0.32;;
67037;SDS011;53940;53.204;6.590;2022-12-07T16:41:28;0.93;;;0.20;;
67037;SDS011;53940;53.204;6.590;2022-12-07T16:44:28;0.98;;;0.30;;
67037;SDS011;53940;53.204;6.590;2022-12-07T16:47:30;1.83;;;0.38;;
67037;SDS011;53940;53.204;6.590;2022-12-07T16:50:30;0.80;;;0.40;;
67037;SDS011;53940;53.204;6.590;2022-12-07T16:53:31;0.47;;;0.30;;
67037;SDS011;53940;53.204;6.590;2022-12-07T16:56:31;0.73;;;0.30;;
67037;SDS011;53940;53.204;6.590;2022-12-07T16:59:31;1.45;;;0.50;;
67037;SDS011;53940;53.204;6.590;2022-12-07T17:02:32;0.73;;;0.30;;
67037;SDS011;53940;53.204;6.590;2022-12-07T17:05:32;0.80;;;0.30;;
67037;SDS011;53940;53.204;6.590;2022-12-07T17:08:33;1.40;;;0.40;;
67037;SDS011;53940;53.204;6.590;2022-12-07T17:11:33;0.50;;;0.30;;
67037;SDS011;53940;53.204;6.590;2022-12-07T17:14:33;0.77;;;0.30;;
67037;SDS011;53940;53.204;6.590;2022-12-07T17:17:53;0.95;;;0.40;;
67037;SDS011;53940;53.204;6.590;2022-12-07T17:21:01;0.65;;;0.20;;
67037;SDS011;53940;53.204;6.590;2022-12-07T17:24:04;0.77;;;0.40;;
67037;SDS011;53940;53.204;6.590;2022-12-07T17:27:06;0.52;;;0.20;;
67037;SDS011;53940;53.204;6.590;2022-12-07T17:30:07;0.82;;;0.30;;
67037;SDS011;53940;53.204;6.590;2022-12-07T17:33:08;1.17;;;0.28;;
67037;SDS011;53940;53.204;6.590;2022-12-07T17:39:19;1.92;;;0.25;;
67037;SDS011;53940;53.204;6.590;2022-12-07T17:42:19;0.57;;;0.30;;
67037;SDS011;53940;53.204;6.590;2022-12-07T17:45:39;0.47;;;0.30;;
67037;SDS011;53940;53.204;6.590;2022-12-07T17:48:39;0.75;;;0.30;;
67037;SDS011;53940;53.204;6.590;2022-12-07T17:51:40;0.20;;;0.15;;
67037;SDS011;53940;53.204;6.590;2022-12-07T17:54:59;0.10;;;0.10;;
67037;SDS011;53940;53.204;6.590;2022-12-07T17:57:59;0.82;;;0.40;;
67037;SDS011;53940;53.204;6.590;2022-12-07T18:00:59;0.85;;;0.30;;
67037;SDS011;53940;53.204;6.590;2022-12-07T18:04:00;0.98;;;0.30;;
67037;SDS011;53940;53.204;6.590;2022-12-07T18:07:01;0.82;;;0.30;;
67037;SDS011;53940;53.204;6.590;2022-12-07T18:10:03;0.43;;;0.20;;
67037;SDS011;53940;53.204;6.590;2022-12-07T18:13:06;1.58;;;0.43;;
67037;SDS011;53940;53.204;6.590;2022-12-07T18:16:36;0.73;;;0.20;;
67037;SDS011;53940;53.204;6.590;2022-12-07T18:19:36;0.35;;;0.20;;
67037;SDS011;53940;53.204;6.590;2022-12-07T18:22:36;0.82;;;0.30;;
67037;SDS011;53940;53.204;6.590;2022-12-07T18:25:38;0.15;;;0.10;;
67037;SDS011;53940;53.204;6.590;2022-12-07T18:28:40;0.73;;;0.30;;
67037;SDS011;53940;53.204;6.590;2022-12-07T18:31:42;0.60;;;0.25;;
67037;SDS011;53940;53.204;6.590;2022-12-07T18:34:43;0.60;;;0.30;;
67037;SDS011;53940;53.204;6.590;2022-12-07T18:37:43;0.70;;;0.20;;
67037;SDS011;53940;53.204;6.590;2022-12-07T18:40:44;0.85;;;0.20;;
67037;SDS011;53940;53.204;6.590;2022-12-07T18:43:45;0.65;;;0.30;;
67037;SDS011;53940;53.204;6.590;2022-12-07T18:46:45;1.08;;;0.20;;
67037;SDS011;53940;53.204;6.590;2022-12-07T18:49:46;0.43;;;0.20;;
67037;SDS011;53940;53.204;6.590;2022-12-07T18:52:46;0.22;;;0.13;;
67037;SDS011;53940;53.204;6.590;2022-12-07T18:55:47;0.40;;;0.20;;
67037;SDS011;53940;53.204;6.590;2022-12-07T18:58:48;0.38;;;0.17;;
67037;SDS011;53940;53.204;6.590;2022-12-07T19:02:10;0.30;;;0.20;;
67037;SDS011;53940;53.204;6.590;2022-12-07T19:05:11;0.70;;;0.10;;
67037;SDS011;53940;53.204;6.590;2022-12-07T19:08:11;0.90;;;0.20;;
67037;SDS011;53940;53.204;6.590;2022-12-07T19:11:19;1.25;;;0.22;;
67037;SDS011;53940;53.204;6.590;2022-12-07T19:14:44;0.90;;;0.30;;
67037;SDS011;53940;53.204;6.590;2022-12-07T19:17:45;0.30;;;0.20;;
67037;SDS011;53940;53.204;6.590;2022-12-07T19:20:45;0.30;;;0.15;;
67037;SDS011;53940;53.204;6.590;2022-12-07T19:23:45;0.55;;;0.20;;
67037;SDS011;53940;53.204;6.590;2022-12-07T19:26:46;0.80;;;0.20;;
67037;SDS011;53940;53.204;6.590;2022-12-07T19:29:46;0.30;;;0.20;;
67037;SDS011;53940;53.204;6.590;2022-12-07T19:32:48;0.22;;;0.10;;
67037;SDS011;53940;53.204;6.590;2022-12-07T19:35:48;0.73;;;0.10;;
67037;SDS011;53940;53.204;6.590;2022-12-07T19:38:49;0.57;;;0.20;;
67037;SDS011;53940;53.204;6.590;2022-12-07T19:41:50;0.40;;;0.20;;
67037;SDS011;53940;53.204;6.590;2022-12-07T19:44:50;0.30;;;0.20;;
67037;SDS011;53940;53.204;6.590;2022-12-07T19:47:50;0.57;;;0.20;;
67037;SDS011;53940;53.204;6.590;2022-12-07T19:50:51;0.40;;;0.15;;
67037;SDS011;53940;53.204;6.590;2022-12-07T19:53:51;0.85;;;0.20;;
67037;SDS011;53940;53.204;6.590;2022-12-07T19:56:52;0.40;;;0.20;;
67037;SDS011;53940;53.204;6.590;2022-12-07T19:59:53;1.00;;;0.20;;
67037;SDS011;53940;53.204;6.590;2022-12-07T20:02:53;0.75;;;0.28;;
67037;SDS011;53940;53.204;6.590;2022-12-07T20:05:54;0.38;;;0.10;;
67037;SDS011;53940;53.204;6.590;2022-12-07T20:08:56;0.32;;;0.20;;
67037;SDS011;53940;53.204;6.590;2022-12-07T20:11:56;0.57;;;0.30;;
67037;SDS011;53940;53.204;6.590;2022-12-07T20:15:15;0.45;;;0.15;;
67037;SDS011;53940;53.204;6.590;2022-12-07T20:18:16;0.70;;;0.32;;
67037;SDS011;53940;53.204;6.590;2022-12-07T20:21:16;0.50;;;0.20;;
67037;SDS011;53940;53.204;6.590;2022-12-07T20:24:18;0.80;;;0.30;;
67037;SDS011;53940;53.204;6.590;2022-12-07T20:27:20;0.28;;;0.15;;
67037;SDS011;53940;53.204;6.590;2022-12-07T20:30:20;0.52;;;0.28;;